Rivadavia, Argentina
Current Conditions -  °F | °C
As of 6:00 PM on Monday 20 Oct 2014 (Local Time) from SAME Reporting Station
Clear Clear  
Wind Chill: 86°   Ceiling: Unl
Heat Index: 86°   Visibility: 6mi
Dew Point: 36°   Wind: 5mph
Humidity: 17%   Direction: 20°NNE
Pressure: 29.91"   Gusts: NA
Location:  31.55°S, 68.65°W
Report Text: SAME 202100Z 02004KT CAVOK 30/02 Q1013
Loading
Personal Weather Stations






























Interactive Weather Map
Tropical Storm Tracking
New forecast layout! Learn more

10-Day Weather Forecast

Advertisements
Track Severe Weather on mobile